Decoded Metar for KCDI ( in ) (IATA:) | Meteo·Mobile Aviation Weather
aviador You're here:

KCDI Decoded Metar

in
Report Time2018-10-19 19:15:00
UTC Time2018-10-19 19:39:23
Flight Rules vfr VFR
Wind210° at 09 Gusting to 15 kt
W.Decomp.*RWY 22: 8.9 kt HW 1.6 kt LCW
W.Rank210° ranks 2
Current wind is above 210° avg. (5.8)
Visibility9999 m
Phenomena:N/A
Clouds:N/A
Expected CloudBase > 5,600 ft AGL from Temp-Dew spread
CeilingNone
Temp15°C
Dew Point01°C (39% RH)
AAT9.9°C
QNH1018 hPa
Raw Report
KCDI 191915Z AUTO 21009G15KT 10SM CLR 15/01 A3007 RMK AO2
T01480008=

Extra information for KCDI:More info

Social comments